Time;durP1;ratioP1;P1;durP2;ratioP2;P2;SDS_P1;SDS_P2;PMS_P1;PMS_P2;Temp;Humidity;BMP_temperature;BMP_pressure;BME280_temperature;BME280_humidity;BME280_pressure;Samples;Min_cycle;Max_cycle;Signal;HPM_P1;HPM_P2
2022/04/04 00:00:45;;;;;;;;;74.00;59.00;6.70;61.10;;;;;;4975836;28;8765;-57
2022/04/04 00:03:12;;;;;;;;;71.25;58.00;6.80;60.80;;;;;;4975566;28;8773;-61
2022/04/04 00:05:39;;;;;;;;;67.50;54.00;7.10;60.30;;;;;;4975733;28;9466;-58
2022/04/04 00:08:08;;;;;;;;;68.50;56.00;7.10;60.00;;;;;;4958501;28;8781;-60
2022/04/04 00:10:34;;;;;;;;;67.50;55.25;6.50;61.50;;;;;;4963673;28;8804;-56
2022/04/04 00:13:00;;;;;;;;;63.25;52.25;6.70;61.80;;;;;;4945844;29;8765;-59
2022/04/04 00:15:27;;;;;;;;;69.75;57.00;6.50;61.90;;;;;;4936909;29;8841;-58
2022/04/04 00:17:55;;;;;;;;;57.25;46.25;6.60;61.90;;;;;;4936959;29;8773;-58
2022/04/04 00:20:22;;;;;;;;;66.00;53.25;7.00;60.20;;;;;;4936926;29;8778;-59
2022/04/04 00:22:47;;;;;;;;;58.50;49.00;7.20;59.30;;;;;;4937236;29;8781;-59
2022/04/04 00:25:13;;;;;;;;;70.00;56.25;7.40;58.50;;;;;;4939279;29;8795;-58
2022/04/04 00:27:39;;;;;;;;;61.50;51.00;7.40;57.70;;;;;;4941159;29;8808;-60
2022/04/04 00:30:05;;;;;;;;;62.25;50.75;6.90;59.90;;;;;;4941035;29;8801;-60
2022/04/04 00:32:31;;;;;;;;;66.75;55.00;6.90;59.70;;;;;;4940734;29;8805;-59
2022/04/04 00:35:00;;;;;;;;;61.50;52.25;6.30;61.80;;;;;;4940589;29;8778;-58
2022/04/04 00:37:26;;;;;;;;;61.00;50.00;6.90;60.20;;;;;;4940905;29;8863;-57
2022/04/04 00:39:52;;;;;;;;;58.75;48.50;7.00;60.60;;;;;;4940664;29;8879;-60
2022/04/04 00:42:18;;;;;;;;;58.25;47.50;6.80;60.20;;;;;;4940562;29;8892;-57
2022/04/04 00:44:45;;;;;;;;;68.50;54.50;6.70;60.50;;;;;;4940556;29;8773;-57
2022/04/04 00:47:12;;;;;;;;;64.50;51.25;6.20;61.80;;;;;;4940477;29;8785;-58
2022/04/04 00:49:38;;;;;;;;;64.25;52.00;6.00;63.00;;;;;;4940559;29;8849;-58
2022/04/04 00:52:05;;;;;;;;;69.00;56.00;6.40;62.20;;;;;;4940665;29;9457;-60
2022/04/04 00:54:32;;;;;;;;;57.00;47.00;6.20;62.40;;;;;;4940645;29;9472;-60
2022/04/04 00:57:00;;;;;;;;;68.50;56.25;5.90;63.40;;;;;;4940351;29;8858;-60
2022/04/04 00:59:26;;;;;;;;;73.25;56.00;6.20;63.20;;;;;;4940497;29;9489;-60
2022/04/04 01:01:52;;;;;;;;;74.50;57.75;6.80;60.50;;;;;;4940180;29;8793;-59
2022/04/04 01:04:18;;;;;;;;;61.00;52.00;7.00;59.20;;;;;;4940402;29;8783;-60
2022/04/04 01:06:44;;;;;;;;;57.50;47.25;6.70;59.80;;;;;;4940100;29;9421;-60
2022/04/04 01:09:16;;;;;;;;;72.50;58.25;6.70;59.80;;;;;;4940058;29;8783;-61
2022/04/04 01:12:06;;;;;;;;;62.50;50.75;6.90;59.40;;;;;;4940953;28;8795;-59
2022/04/04 01:14:32;;;;;;;;;73.75;59.75;6.70;59.80;;;;;;4940668;28;8798;-60
2022/04/04 01:16:58;;;;;;;;;74.50;59.00;6.20;61.70;;;;;;4959278;28;8838;-60
2022/04/04 01:19:24;;;;;;;;;71.00;58.25;6.10;62.90;;;;;;4947906;29;8803;-57
2022/04/04 01:21:49;;;;;;;;;78.25;61.75;6.10;62.70;;;;;;4939862;29;8795;-57
2022/04/04 01:24:17;;;;;;;;;72.25;57.75;5.90;63.30;;;;;;4939868;29;8810;-57
2022/04/04 01:26:47;;;;;;;;;69.25;56.50;6.00;63.40;;;;;;4939883;29;8929;-57
2022/04/04 01:29:13;;;;;;;;;75.00;62.00;5.80;64.80;;;;;;4939953;29;8783;-56
2022/04/04 01:31:40;;;;;;;;;73.50;57.75;6.10;63.10;;;;;;4939641;29;8793;-58
2022/04/04 01:34:05;;;;;;;;;80.75;62.25;6.10;62.70;;;;;;4939683;29;8860;-58
2022/04/04 01:36:31;;;;;;;;;74.25;60.00;5.80;64.10;;;;;;4939113;29;8856;-58
2022/04/04 01:38:57;;;;;;;;;67.25;56.25;5.80;64.10;;;;;;4939842;29;9486;-57
2022/04/04 01:41:23;;;;;;;;;71.25;57.25;5.70;64.30;;;;;;4939525;29;8794;-58
2022/04/04 01:43:49;;;;;;;;;67.00;55.00;5.90;63.60;;;;;;4939709;29;8791;-58
2022/04/04 01:46:24;;;;;;;;;75.00;62.25;6.00;63.60;;;;;;4939397;29;8790;-55
2022/04/04 01:48:50;;;;;;;;;65.75;56.25;5.80;63.40;;;;;;4939693;29;8783;-57
2022/04/04 01:51:17;;;;;;;;;73.50;60.25;5.60;64.70;;;;;;4939185;29;8837;-57
2022/04/04 01:53:43;;;;;;;;;70.00;58.00;5.60;65.50;;;;;;4939579;29;9493;-57
2022/04/04 01:56:09;;;;;;;;;74.00;60.75;5.80;64.50;;;;;;4939163;29;8834;-56
2022/04/04 01:58:35;;;;;;;;;76.00;61.25;5.80;63.90;;;;;;4939204;29;8790;-57
2022/04/04 02:01:04;;;;;;;;;70.25;57.50;5.80;64.40;;;;;;4939241;29;8799;-57
2022/04/04 02:03:31;;;;;;;;;78.25;61.00;6.20;62.50;;;;;;4939084;29;8767;-58
2022/04/04 02:05:59;;;;;;;;;77.00;61.25;6.20;61.70;;;;;;4939061;29;8821;-57
2022/04/04 02:08:26;;;;;;;;;71.00;56.50;6.40;61.40;;;;;;4939011;29;8795;-58
2022/04/04 02:10:51;;;;;;;;;64.25;52.00;6.30;61.50;;;;;;4938995;29;8786;-57
2022/04/04 02:13:17;;;;;;;;;68.75;58.00;6.40;60.40;;;;;;4938998;29;8783;-58
2022/04/04 02:15:43;;;;;;;;;66.25;53.75;6.50;60.00;;;;;;4938849;29;8833;-57
2022/04/04 02:18:09;;;;;;;;;68.25;54.25;6.80;58.90;;;;;;4939124;29;8795;-57
2022/04/04 02:20:35;;;;;;;;;71.00;58.50;6.70;58.70;;;;;;4938771;29;9574;-57
2022/04/04 02:23:02;;;;;;;;;70.25;57.00;6.70;59.00;;;;;;4938718;29;8779;-57
2022/04/04 02:25:28;;;;;;;;;66.75;53.00;6.50;59.30;;;;;;4938737;29;8801;-58
2022/04/04 02:27:54;;;;;;;;;70.25;58.50;6.50;59.30;;;;;;4939054;29;8834;-58
2022/04/04 02:30:20;;;;;;;;;54.50;47.25;6.60;59.00;;;;;;4938588;29;8817;-57
2022/04/04 02:32:46;;;;;;;;;70.00;56.25;6.60;58.90;;;;;;4938572;29;8807;-58
2022/04/04 02:35:12;;;;;;;;;72.75;59.00;6.40;59.70;;;;;;4938467;29;8802;-56
2022/04/04 02:37:38;;;;;;;;;78.25;62.50;6.30;60.40;;;;;;4938475;29;8794;-58
2022/04/04 02:40:05;;;;;;;;;73.75;59.00;6.60;60.70;;;;;;4938449;29;8877;-57
2022/04/04 02:42:32;;;;;;;;;82.75;63.25;6.20;60.30;;;;;;4938418;29;8786;-57
2022/04/04 02:44:58;;;;;;;;;83.00;66.25;6.10;61.10;;;;;;4938416;29;8881;-58
2022/04/04 02:47:23;;;;;;;;;76.50;61.50;5.90;61.70;;;;;;4937809;29;8905;-58
2022/04/04 02:49:49;;;;;;;;;82.75;65.25;5.90;62.10;;;;;;4937693;29;8830;-58
2022/04/04 02:52:15;;;;;;;;;81.50;66.00;6.10;61.60;;;;;;4938497;29;9568;-57
2022/04/04 02:54:41;;;;;;;;;92.00;72.00;5.90;62.70;;;;;;4938224;29;9518;-58
2022/04/04 02:57:06;;;;;;;;;89.50;70.75;6.10;60.90;;;;;;4938178;29;8863;-57
2022/04/04 02:59:32;;;;;;;;;91.25;70.25;6.30;60.50;;;;;;4938123;29;8798;-56
2022/04/04 03:01:58;;;;;;;;;90.75;70.25;6.30;60.20;;;;;;4938062;29;8821;-58
2022/04/04 03:04:24;;;;;;;;;90.00;69.75;6.50;59.70;;;;;;4937935;29;8791;-58
2022/04/04 03:06:50;;;;;;;;;84.00;64.00;5.90;61.70;;;;;;4937944;29;8881;-58
2022/04/04 03:09:16;;;;;;;;;79.75;64.25;6.00;61.50;;;;;;4938172;29;8791;-58
2022/04/04 03:11:41;;;;;;;;;85.50;65.75;6.10;60.80;;;;;;4937871;29;8801;-59
2022/04/04 03:14:07;;;;;;;;;84.25;65.50;6.10;61.10;;;;;;4937369;29;8817;-59
2022/04/04 03:16:33;;;;;;;;;75.25;57.75;6.00;61.20;;;;;;4937617;29;9388;-58
2022/04/04 03:18:59;;;;;;;;;85.00;67.00;5.90;61.00;;;;;;4937644;29;8799;-56
2022/04/04 03:21:29;;;;;;;;;91.25;72.75;5.70;62.20;;;;;;4937898;29;8790;-58
2022/04/04 03:23:55;;;;;;;;;85.25;69.50;6.00;61.50;;;;;;4937653;29;8869;-58
2022/04/04 03:26:21;;;;;;;;;83.00;67.25;6.10;60.50;;;;;;4937591;29;8835;-58
2022/04/04 03:28:47;;;;;;;;;85.50;68.50;6.20;60.10;;;;;;4937549;29;8806;-58
2022/04/04 03:31:13;;;;;;;;;82.25;66.25;6.30;59.60;;;;;;4937497;29;8817;-59
2022/04/04 03:33:40;;;;;;;;;79.25;62.75;6.20;60.50;;;;;;4937548;29;8797;-58
2022/04/04 03:36:06;;;;;;;;;89.25;67.25;6.10;60.50;;;;;;4937663;29;9000;-58
2022/04/04 03:38:33;;;;;;;;;81.25;63.00;6.30;60.00;;;;;;4939902;28;8784;-58
2022/04/04 03:40:59;;;;;;;;;83.00;67.50;6.10;60.70;;;;;;4946438;28;8965;-57
2022/04/04 03:43:25;;;;;;;;;88.25;68.50;6.00;60.30;;;;;;4937635;29;8857;-58
2022/04/04 03:45:51;;;;;;;;;88.00;69.25;6.00;61.20;;;;;;4937548;29;8865;-59
2022/04/04 03:48:18;;;;;;;;;81.50;66.00;6.00;60.80;;;;;;4937305;29;8799;-58
2022/04/04 03:50:45;;;;;;;;;77.00;60.75;6.10;60.20;;;;;;4937060;29;8815;-59
2022/04/04 03:53:11;;;;;;;;;83.25;66.50;5.70;61.90;;;;;;4937581;29;9421;-59
2022/04/04 03:55:39;;;;;;;;;85.25;66.25;5.10;64.30;;;;;;4937054;29;8842;-59
2022/04/04 03:58:10;;;;;;;;;80.00;64.00;5.10;65.20;;;;;;4937089;29;8865;-59
2022/04/04 04:00:38;;;;;;;;;75.00;61.00;5.50;63.30;;;;;;4937083;29;8886;-60
2022/04/04 04:03:05;;;;;;;;;82.50;63.00;5.00;64.70;;;;;;4937144;29;8901;-57
2022/04/04 04:05:31;;;;;;;;;69.50;56.00;5.20;64.50;;;;;;4937029;29;8771;-59
2022/04/04 04:07:56;;;;;;;;;83.75;65.75;5.20;65.00;;;;;;4937032;29;8787;-59
2022/04/04 04:10:22;;;;;;;;;85.50;66.75;5.50;63.70;;;;;;4937224;29;8795;-60
2022/04/04 04:12:49;;;;;;;;;81.50;64.50;5.60;63.10;;;;;;4936928;29;9513;-58
2022/04/04 04:15:18;;;;;;;;;91.00;72.00;6.00;61.50;;;;;;4936849;29;8827;-59
2022/04/04 04:17:45;;;;;;;;;94.75;71.25;6.10;60.70;;;;;;4937148;29;8818;-57
2022/04/04 04:20:21;;;;;;;;;89.50;72.75;6.10;60.70;;;;;;4937135;29;8783;-58
2022/04/04 04:22:52;;;;;;;;;100.75;83.50;6.10;60.30;;;;;;4936931;29;8798;-59
2022/04/04 04:25:19;;;;;;;;;96.50;75.75;6.20;60.00;;;;;;4936816;29;8977;-60
2022/04/04 04:27:46;;;;;;;;;93.00;74.00;6.20;60.80;;;;;;4937259;29;8826;-59
2022/04/04 04:30:16;;;;;;;;;94.25;71.75;6.00;60.60;;;;;;4936942;29;8786;-58
2022/04/04 04:32:50;;;;;;;;;94.00;77.00;6.10;60.80;;;;;;4936850;29;8809;-56
2022/04/04 04:35:17;;;;;;;;;92.00;74.25;5.30;63.70;;;;;;4936822;29;8823;-57
2022/04/04 04:37:44;;;;;;;;;88.00;69.50;5.10;64.80;;;;;;4937009;29;8782;-59
2022/04/04 04:40:11;;;;;;;;;104.75;97.00;5.20;64.40;;;;;;4943703;29;8787;-58
2022/04/04 04:42:37;;;;;;;;;100.50;84.50;5.40;63.60;;;;;;4947292;29;8839;-57
2022/04/04 04:45:05;;;;;;;;;109.50;100.75;5.30;64.10;;;;;;4946990;29;9481;-59
2022/04/04 04:47:32;;;;;;;;;102.50;93.25;5.40;63.70;;;;;;4955946;28;9438;-60
2022/04/04 04:49:58;;;;;;;;;102.25;86.00;5.60;62.80;;;;;;4955699;28;8858;-59
2022/04/04 04:52:26;;;;;;;;;111.00;100.00;6.00;61.30;;;;;;4955761;28;8894;-59
2022/04/04 04:54:52;;;;;;;;;118.25;107.50;5.90;61.30;;;;;;4955876;28;8781;-61
2022/04/04 04:57:18;;;;;;;;;118.00;104.75;5.80;61.80;;;;;;4956044;28;8919;-59
2022/04/04 04:59:44;;;;;;;;;143.00;128.00;6.00;61.50;;;;;;4953017;29;8851;-60
2022/04/04 05:02:10;;;;;;;;;120.25;107.00;5.90;62.00;;;;;;4954200;29;8776;-56
2022/04/04 05:04:36;;;;;;;;;171.00;153.25;5.80;62.50;;;;;;4939718;29;8818;-55
2022/04/04 05:07:02;;;;;;;;;145.25;134.75;6.00;62.10;;;;;;4946089;29;8930;-54
2022/04/04 05:09:28;;;;;;;;;102.25;80.75;6.00;62.00;;;;;;4955847;28;8899;-56
2022/04/04 05:11:53;;;;;;;;;101.00;88.25;6.00;61.30;;;;;;4957298;28;8788;-54
2022/04/04 05:14:19;;;;;;;;;101.75;87.25;6.00;61.00;;;;;;4959145;28;8777;-56
2022/04/04 05:16:46;;;;;;;;;104.50;91.25;5.90;61.90;;;;;;4958823;28;8824;-54
2022/04/04 05:19:19;;;;;;;;;104.25;90.75;6.10;60.70;;;;;;4959097;28;8768;-54
2022/04/04 05:21:46;;;;;;;;;106.50;99.25;6.10;60.20;;;;;;4959353;28;8785;-56
2022/04/04 05:24:12;;;;;;;;;108.50;97.50;6.10;60.40;;;;;;4958921;28;9396;-54
2022/04/04 05:26:38;;;;;;;;;103.25;87.50;6.20;60.10;;;;;;4958978;28;8824;-61
2022/04/04 05:29:04;;;;;;;;;118.50;101.50;6.30;60.00;;;;;;4958945;28;8859;-56
2022/04/04 05:31:31;;;;;;;;;103.75;94.50;6.30;60.10;;;;;;4958921;28;8811;-56
2022/04/04 05:33:58;;;;;;;;;109.00;93.75;6.40;59.20;;;;;;4958753;28;8789;-56
2022/04/04 05:36:26;;;;;;;;;106.25;92.00;6.40;59.60;;;;;;4958716;28;8830;-59
2022/04/04 05:38:52;;;;;;;;;124.25;111.50;6.40;59.40;;;;;;4958695;28;8788;-59
2022/04/04 05:41:18;;;;;;;;;135.25;127.75;6.50;59.10;;;;;;4958959;28;8879;-58
2022/04/04 05:43:46;;;;;;;;;124.50;115.00;6.40;60.00;;;;;;4958668;28;8772;-58
2022/04/04 05:46:14;;;;;;;;;148.25;131.50;6.50;59.80;;;;;;4958551;28;8791;-59
2022/04/04 05:48:40;;;;;;;;;136.00;123.75;6.40;60.40;;;;;;4958716;28;8929;-58
2022/04/04 05:51:06;;;;;;;;;114.50;100.25;6.40;60.20;;;;;;4975039;28;8797;-58
2022/04/04 05:53:31;;;;;;;;;118.25;109.25;6.30;60.40;;;;;;4977780;28;8785;-56
2022/04/04 05:55:57;;;;;;;;;116.00;104.25;6.20;60.60;;;;;;4977569;28;8841;-58
2022/04/04 05:58:24;;;;;;;;;96.50;80.00;6.40;60.10;;;;;;4977965;28;8769;-57
2022/04/04 06:00:49;;;;;;;;;87.75;69.75;5.90;60.90;;;;;;4977837;28;8769;-58
2022/04/04 06:03:15;;;;;;;;;75.50;60.75;6.20;60.90;;;;;;4977608;28;9498;-58
2022/04/04 06:05:41;;;;;;;;;86.75;69.50;6.70;58.50;;;;;;4977574;28;8805;-58
2022/04/04 06:08:07;;;;;;;;;89.25;70.75;6.70;58.10;;;;;;4977472;28;8813;-56
2022/04/04 06:10:33;;;;;;;;;91.75;70.75;6.40;58.90;;;;;;4977584;28;8777;-59
2022/04/04 06:13:00;;;;;;;;;87.00;69.50;6.50;59.70;;;;;;4976778;28;8800;-58
2022/04/04 06:15:26;;;;;;;;;90.00;73.25;6.60;58.40;;;;;;4977231;28;8911;-58
2022/04/04 06:17:52;;;;;;;;;80.50;65.25;6.20;60.20;;;;;;4977241;28;8797;-58
2022/04/04 06:20:19;;;;;;;;;90.00;75.00;5.70;62.20;;;;;;4977575;28;8788;-58
2022/04/04 06:22:45;;;;;;;;;79.50;64.75;6.20;61.60;;;;;;4977492;28;8791;-56
2022/04/04 06:25:15;;;;;;;;;80.00;64.25;6.80;59.50;;;;;;4959289;28;8799;-57
2022/04/04 06:27:42;;;;;;;;;78.25;64.00;6.50;60.60;;;;;;4958227;28;8814;-56
2022/04/04 06:30:09;;;;;;;;;68.00;57.50;6.20;60.80;;;;;;4957898;28;8909;-57
2022/04/04 06:32:35;;;;;;;;;69.50;57.00;6.60;58.60;;;;;;4957560;28;8772;-58
2022/04/04 06:35:01;;;;;;;;;70.50;55.25;6.70;59.30;;;;;;4957141;28;8809;-58
2022/04/04 06:37:27;;;;;;;;;73.75;60.25;7.00;57.20;;;;;;4957898;28;8817;-58
2022/04/04 06:39:53;;;;;;;;;67.25;55.00;6.60;57.60;;;;;;4957508;28;9426;-57
2022/04/04 06:42:19;;;;;;;;;64.00;53.75;6.80;57.20;;;;;;4957792;28;8779;-57
2022/04/04 06:44:45;;;;;;;;;65.50;53.50;7.30;55.40;;;;;;4957573;28;8782;-62
2022/04/04 06:47:11;;;;;;;;;72.25;57.50;7.40;55.10;;;;;;4957540;28;8783;-57
2022/04/04 06:49:37;;;;;;;;;65.00;55.00;7.80;54.00;;;;;;4956765;28;8891;-57
2022/04/04 06:52:03;;;;;;;;;50.50;44.25;7.50;54.30;;;;;;4957508;28;8850;-59
2022/04/04 06:54:29;;;;;;;;;64.00;51.50;7.40;54.00;;;;;;4957613;28;9486;-58
2022/04/04 06:56:55;;;;;;;;;69.75;53.25;7.70;53.20;;;;;;4957345;28;8844;-57
2022/04/04 06:59:22;;;;;;;;;66.50;54.00;7.90;52.00;;;;;;4957174;28;8760;-61
2022/04/04 07:01:49;;;;;;;;;57.00;48.00;8.30;50.90;;;;;;4956886;28;8834;-56
2022/04/04 07:04:16;;;;;;;;;63.75;52.00;8.40;51.20;;;;;;4957462;28;8822;-56
2022/04/04 07:06:42;;;;;;;;;73.25;56.75;8.00;52.00;;;;;;4957157;28;8784;-56
2022/04/04 07:09:11;;;;;;;;;68.25;56.25;7.40;54.00;;;;;;4957308;28;8926;-57
2022/04/04 07:11:37;;;;;;;;;63.00;51.00;7.30;55.30;;;;;;4957093;28;8804;-56
2022/04/04 07:14:03;;;;;;;;;67.75;57.25;7.40;55.60;;;;;;4957052;28;8784;-56
2022/04/04 07:16:30;;;;;;;;;58.75;50.50;8.10;52.90;;;;;;4956933;28;8911;-55
2022/04/04 07:18:55;;;;;;;;;64.00;53.50;8.10;51.90;;;;;;4957002;28;8792;-57
2022/04/04 07:21:22;;;;;;;;;66.50;53.50;7.50;53.10;;;;;;4956933;28;8803;-56
2022/04/04 07:23:49;;;;;;;;;64.00;52.50;8.10;52.20;;;;;;4957159;28;8807;-56
2022/04/04 07:26:19;;;;;;;;;71.00;57.00;8.40;51.10;;;;;;4957059;28;8914;-56
2022/04/04 07:28:46;;;;;;;;;77.75;61.50;8.80;50.40;;;;;;4956997;28;9477;-56
2022/04/04 07:31:16;;;;;;;;;74.00;58.50;9.00;50.30;;;;;;4956667;28;8792;-55
2022/04/04 07:33:42;;;;;;;;;69.25;57.25;9.20;50.10;;;;;;4956660;28;8807;-56
2022/04/04 07:36:08;;;;;;;;;70.50;56.50;9.30;48.30;;;;;;4956502;28;8816;-55
2022/04/04 07:38:34;;;;;;;;;61.25;52.25;9.00;47.70;;;;;;4956851;28;8795;-57
2022/04/04 07:41:00;;;;;;;;;57.50;46.75;9.00;47.50;;;;;;4956546;28;9423;-55
2022/04/04 07:43:26;;;;;;;;;71.25;57.50;8.90;48.00;;;;;;4956497;28;8793;-56
2022/04/04 07:45:52;;;;;;;;;66.25;54.25;9.20;47.30;;;;;;4956736;28;8768;-57
2022/04/04 07:48:18;;;;;;;;;66.25;55.25;9.20;47.40;;;;;;4956428;28;8892;-56
2022/04/04 07:50:45;;;;;;;;;68.75;55.00;9.40;47.20;;;;;;4956252;28;8845;-57
2022/04/04 07:53:12;;;;;;;;;63.25;51.75;9.80;46.50;;;;;;4956479;28;8792;-55
2022/04/04 07:55:40;;;;;;;;;64.75;52.75;9.70;45.60;;;;;;4956252;28;8824;-56
2022/04/04 07:58:06;;;;;;;;;64.25;51.50;9.90;45.40;;;;;;4956452;28;8848;-58
2022/04/04 08:00:32;;;;;;;;;56.50;48.00;9.90;45.90;;;;;;4956538;28;9463;-54
2022/04/04 08:02:58;;;;;;;;;55.00;47.25;9.60;45.90;;;;;;4956526;28;8784;-56
2022/04/04 08:05:25;;;;;;;;;56.75;48.75;8.60;49.00;;;;;;4956282;28;9435;-56
2022/04/04 08:07:52;;;;;;;;;58.00;46.00;8.40;49.80;;;;;;4956146;28;8804;-57
2022/04/04 08:10:19;;;;;;;;;55.50;46.25;9.20;46.70;;;;;;4956278;28;8867;-55
2022/04/04 08:12:47;;;;;;;;;42.25;40.00;8.70;47.80;;;;;;4956240;28;8801;-56
2022/04/04 08:15:13;;;;;;;;;47.25;40.75;8.40;45.90;;;;;;4956110;28;8816;-57
2022/04/04 08:17:40;;;;;;;;;51.25;41.75;8.60;46.60;;;;;;4956478;29;8789;-55
2022/04/04 08:20:08;;;;;;;;;49.00;42.25;9.10;44.80;;;;;;4956158;29;8812;-55
2022/04/04 08:22:39;;;;;;;;;48.75;42.00;9.50;43.20;;;;;;4956172;29;8796;-56
2022/04/04 08:25:06;;;;;;;;;49.50;40.00;9.50;44.50;;;;;;4956177;29;8906;-55
2022/04/04 08:27:32;;;;;;;;;47.00;42.50;9.60;44.50;;;;;;4956369;29;8867;-56
2022/04/04 08:29:58;;;;;;;;;50.25;41.75;9.70;44.00;;;;;;4956365;29;8904;-56
2022/04/04 08:32:23;;;;;;;;;49.25;43.00;9.90;44.80;;;;;;4956127;28;8768;-57
2022/04/04 08:34:49;;;;;;;;;52.75;43.50;10.50;43.70;;;;;;4955936;29;8780;-56
2022/04/04 08:37:15;;;;;;;;;42.50;39.25;10.80;42.90;;;;;;4956168;28;8851;-54
2022/04/04 08:39:44;;;;;;;;;44.50;39.25;11.00;41.70;;;;;;4955872;29;8792;-54
2022/04/04 08:42:11;;;;;;;;;35.75;32.75;10.50;41.60;;;;;;4954867;29;8796;-55
2022/04/04 08:44:39;;;;;;;;;43.50;39.00;10.40;40.80;;;;;;4955944;29;8899;-54
2022/04/04 08:47:06;;;;;;;;;45.50;41.00;10.40;40.50;;;;;;4958083;28;8804;-57
2022/04/04 08:49:33;;;;;;;;;45.50;40.00;10.70;40.60;;;;;;4959519;28;8926;-54
2022/04/04 08:51:59;;;;;;;;;40.25;37.25;11.10;41.40;;;;;;4959672;28;8819;-56
2022/04/04 08:54:25;;;;;;;;;43.25;39.25;10.10;41.40;;;;;;4959803;28;8780;-57
2022/04/04 08:56:50;;;;;;;;;35.00;34.75;9.50;40.20;;;;;;4959474;28;8863;-56
2022/04/04 08:59:17;;;;;;;;;34.00;34.00;9.30;38.50;;;;;;4959526;28;8796;-55
2022/04/04 09:01:42;;;;;;;;;39.25;37.50;9.40;38.50;;;;;;4959757;28;8839;-58
2022/04/04 09:04:08;;;;;;;;;37.50;37.00;9.40;38.90;;;;;;4959769;28;8799;-58
2022/04/04 09:06:52;;;;;;;;;50.50;40.75;10.00;39.00;;;;;;4959274;28;8788;-57
2022/04/04 09:09:38;;;;;;;;;50.50;43.00;10.20;39.50;;;;;;4959245;28;8822;-56
2022/04/04 09:12:17;;;;;;;;;47.25;39.00;10.90;39.50;;;;;;4959316;28;8858;-55
2022/04/04 09:14:46;;;;;;;;;46.75;39.25;10.60;39.70;;;;;;4959430;28;8788;-58
2022/04/04 09:17:14;;;;;;;;;51.75;43.75;10.50;38.90;;;;;;4958997;28;8828;-58
2022/04/04 09:19:40;;;;;;;;;47.25;40.75;11.00;38.90;;;;;;4959038;28;8804;-57
2022/04/04 09:22:09;;;;;;;;;49.75;40.25;11.00;39.80;;;;;;4959002;28;8784;-55
2022/04/04 09:24:56;;;;;;;;;44.00;38.75;11.00;38.00;;;;;;4958983;28;8824;-55
2022/04/04 09:27:24;;;;;;;;;34.50;34.25;10.50;40.70;;;;;;4959205;28;8836;-55
2022/04/04 09:29:55;;;;;;;;;37.50;35.25;10.80;37.50;;;;;;4958953;28;8784;-55
2022/04/04 09:32:22;;;;;;;;;34.25;33.75;10.80;39.20;;;;;;4959075;28;8781;-55
2022/04/04 09:35:08;;;;;;;;;38.50;32.00;11.30;38.30;;;;;;4958982;28;9435;-57
2022/04/04 09:37:35;;;;;;;;;37.25;33.75;11.00;38.10;;;;;;4958755;28;8808;-56
2022/04/04 09:40:07;;;;;;;;;39.00;36.25;10.80;38.00;;;;;;4958641;28;8788;-55
2022/04/04 09:42:33;;;;;;;;;37.25;33.50;10.60;36.80;;;;;;4958912;28;8803;-55
2022/04/04 09:45:09;;;;;;;;;35.00;35.00;11.10;37.60;;;;;;4958629;28;8772;-56
2022/04/04 09:47:50;;;;;;;;;32.25;29.75;11.30;37.20;;;;;;4958532;28;8792;-57
2022/04/04 09:50:49;;;;;;;;;39.00;36.50;11.00;39.10;;;;;;4958623;28;8812;-55
2022/04/04 09:53:20;;;;;;;;;35.00;32.50;11.40;40.40;;;;;;4956218;28;8826;-56
2022/04/04 09:55:57;;;;;;;;;34.00;34.00;11.90;37.90;;;;;;4958279;28;8836;-57
2022/04/04 09:58:30;;;;;;;;;36.00;33.50;11.70;39.10;;;;;;4958263;28;8872;-57
2022/04/04 10:00:59;;;;;;;;;37.50;34.00;12.10;40.10;;;;;;4958389;28;8780;-58
2022/04/04 10:03:25;;;;;;;;;39.00;34.75;12.40;38.30;;;;;;4958436;28;8773;-58
2022/04/04 10:05:57;;;;;;;;;38.25;35.50;12.60;38.10;;;;;;4958566;28;8799;-58
2022/04/04 10:08:25;;;;;;;;;40.50;37.50;12.60;35.50;;;;;;4958507;28;8784;-57
2022/04/04 10:10:53;;;;;;;;;36.00;32.00;12.50;37.40;;;;;;4958201;28;8867;-58
2022/04/04 10:13:21;;;;;;;;;36.75;35.75;11.60;39.10;;;;;;4958164;28;8862;-57
2022/04/04 10:15:47;;;;;;;;;33.75;32.00;11.90;37.00;;;;;;4957946;28;8812;-58
2022/04/04 10:18:15;;;;;;;;;34.25;33.25;12.50;36.90;;;;;;4958010;28;8780;-60
2022/04/04 10:20:42;;;;;;;;;40.50;38.00;13.20;35.30;;;;;;4958330;28;8962;-58
2022/04/04 10:23:12;;;;;;;;;38.00;34.50;12.50;36.60;;;;;;4958237;28;8788;-58
2022/04/04 10:25:39;;;;;;;;;37.00;35.00;12.20;40.40;;;;;;4958310;28;9449;-59
2022/04/04 10:28:05;;;;;;;;;28.00;27.00;12.30;38.00;;;;;;4954929;28;8816;-59
2022/04/04 10:30:40;;;;;;;;;63.25;51.50;12.60;37.10;;;;;;4957877;28;8865;-57
2022/04/04 10:33:22;;;;;;;;;41.50;36.00;12.50;36.00;;;;;;4958021;28;8798;-57
2022/04/04 10:36:03;;;;;;;;;29.25;29.25;12.20;37.60;;;;;;4957506;28;8840;-57
2022/04/04 10:38:31;;;;;;;;;33.50;31.75;12.80;37.00;;;;;;4957972;28;8784;-57
2022/04/04 10:40:58;;;;;;;;;38.00;35.00;14.00;36.90;;;;;;4957813;28;8819;-57
2022/04/04 10:43:24;;;;;;;;;36.67;34.67;14.30;34.70;;;;;;4957812;28;8796;-57
2022/04/04 10:46:01;;;;;;;;;33.75;32.00;13.40;34.70;;;;;;4957533;28;8800;-58
2022/04/04 10:49:00;;;;;;;;;37.33;32.67;13.60;35.40;;;;;;4957451;28;8887;-57
2022/04/04 10:51:39;;;;;;;;;35.00;31.00;14.50;34.70;;;;;;4957309;28;8823;-56
2022/04/04 10:54:10;;;;;;;;;30.33;30.00;14.20;33.20;;;;;;4957386;28;8818;-56
2022/04/04 10:56:40;;;;;;;;;32.00;27.33;14.00;35.40;;;;;;4957287;28;8836;-60
2022/04/04 10:59:16;;;;;;;;;37.00;34.33;13.80;36.70;;;;;;4950736;28;8789;-61
2022/04/04 11:01:56;;;;;;;;;28.67;27.00;13.90;36.10;;;;;;4952106;28;8764;-59
2022/04/04 11:04:31;;;;;;;;;27.33;27.33;13.90;34.20;;;;;;4954684;28;8826;-60
2022/04/04 11:10:07;;;;;;;;;30.33;25.33;14.10;33.40;;;;;;4954330;28;8757;-60
2022/04/04 11:13:03;;;;;;;;;24.33;24.33;14.40;30.80;;;;;;4952806;28;8792;-60
2022/04/04 11:15:55;;;;;;;;;27.00;23.00;14.80;30.10;;;;;;4952328;28;8812;-59
2022/04/04 11:18:22;;;;;;;;;23.00;23.00;14.80;30.80;;;;;;4953766;28;8784;-59
2022/04/04 11:20:58;;;;;;;;;22.00;21.33;14.30;31.00;;;;;;4952299;28;8789;-59
2022/04/04 11:23:27;;;;;;;;;27.67;27.67;13.70;30.50;;;;;;4954393;28;8911;-60
2022/04/04 11:25:54;;;;;;;;;7.67;6.33;13.70;30.80;;;;;;4955144;28;8830;-60
2022/04/04 11:28:22;;;;;;;;;29.00;26.33;14.10;30.80;;;;;;4956957;28;8827;-60
2022/04/04 11:30:53;;;;;;;;;28.00;26.00;15.00;29.70;;;;;;4954800;28;8784;-60
2022/04/04 11:33:26;;;;;;;;;30.00;26.00;16.00;30.00;;;;;;4954369;28;8785;-60
2022/04/04 11:35:52;;;;;;;;;23.33;23.00;15.60;31.00;;;;;;4953579;28;8812;-60
2022/04/04 11:38:22;;;;;;;;;29.00;27.00;15.80;30.20;;;;;;4955520;28;8776;-60
2022/04/04 11:40:55;;;;;;;;;24.00;24.00;16.40;30.00;;;;;;4952977;28;8809;-60
2022/04/04 11:43:23;;;;;;;;;24.33;24.33;16.40;29.70;;;;;;4953783;28;8883;-60
2022/04/04 11:45:52;;;;;;;;;21.00;21.00;15.50;30.80;;;;;;4954256;28;8907;-60
2022/04/04 11:48:24;;;;;;;;;24.67;24.33;15.20;30.00;;;;;;4952604;28;8851;-60
2022/04/04 11:50:56;;;;;;;;;27.00;27.00;15.20;31.90;;;;;;4952684;28;8903;-60
2022/04/04 11:53:25;;;;;;;;;28.33;23.33;15.20;32.10;;;;;;4953288;28;8780;-60
2022/04/04 11:56:03;;;;;;;;;19.33;19.33;15.10;31.50;;;;;;4952037;28;8836;-61
2022/04/04 11:58:30;;;;;;;;;24.00;23.00;15.10;30.90;;;;;;4955253;28;8770;-61
2022/04/04 12:01:04;;;;;;;;;21.00;19.33;15.30;30.90;;;;;;4951775;28;8788;-59
2022/04/04 12:03:32;;;;;;;;;25.67;25.67;16.20;31.10;;;;;;4956012;28;8765;-58
2022/04/04 12:06:05;;;;;;;;;21.67;21.67;16.40;29.10;;;;;;4950921;28;8800;-58
2022/04/04 12:08:32;;;;;;;;;25.33;23.67;17.30;28.90;;;;;;4952357;28;8911;-57
2022/04/04 12:10:58;;;;;;;;;21.33;21.33;18.00;28.80;;;;;;4954929;28;8892;-58
2022/04/04 12:13:26;;;;;;;;;19.75;18.75;19.20;27.70;;;;;;4954740;28;11548;-58
2022/04/04 12:15:54;;;;;;;;;19.00;18.25;19.10;26.10;;;;;;4954495;28;11709;-56
2022/04/04 12:18:23;;;;;;;;;31.00;31.00;22.90;24.10;;;;;;4952506;29;11574;-59
2022/04/04 12:20:50;;;;;;;;;19.75;19.75;25.80;21.90;;;;;;4954439;28;11566;-59
2022/04/04 12:26:07;;;;;;;;;19.75;19.75;28.10;20.00;;;;;;4956291;28;12276;-60
2022/04/04 12:28:34;;;;;;;;;18.50;18.50;32.00;18.40;;;;;;4959218;28;11585;-59
2022/04/04 12:31:15;;;;;;;;;15.00;15.00;34.10;16.50;;;;;;4955229;28;12220;-60
2022/04/04 12:33:42;;;;;;;;;18.00;18.00;32.90;17.10;;;;;;4957509;28;11561;-59
2022/04/04 12:36:08;;;;;;;;;19.00;19.00;30.10;17.20;;;;;;4953270;28;11708;-60
2022/04/04 12:38:40;;;;;;;;;21.75;21.00;29.10;18.70;;;;;;4958320;28;11557;-58
2022/04/04 12:41:14;;;;;;;;;19.50;19.50;31.20;18.20;;;;;;4956517;28;11571;-64
2022/04/04 12:43:42;;;;;;;;;17.00;17.00;29.60;18.30;;;;;;4956470;28;11535;-59
2022/04/04 12:46:23;;;;;;;;;19.75;19.75;28.70;19.00;;;;;;4949521;28;11591;-60
2022/04/04 12:48:49;;;;;;;;;19.00;19.00;28.20;19.60;;;;;;4952063;28;12240;-61
2022/04/04 12:51:29;;;;;;;;;18.50;18.50;27.60;19.30;;;;;;4939124;29;11758;-73